Terminal Aerodrome Forecast
Issued by NWS Des Moines, IA

Home | Current Version | Previous Version | Text Only | Print | Product List | Glossary On
Versions: 1 2 3 4 5 6 7 8 9 10 11 12 13 14 15 16 17 18 19 20 21 22 23 24
000
FTUS43 KDMX 151125
TAFALO
TAF
KALO 151125Z 1512/1612 26008KT P6SM OVC050
     FM151700 26009KT P6SM VCSH OVC030
     FM152300 25009KT P6SM OVC100
     FM160000 20005KT P6SM SCT250=

USA.gov is the U.S. government's official web portal to all federal, state and local government web resources and services.